sensor_id;sensor_type;location;lat;lon;timestamp;P1;durP1;ratioP1;P2;durP2;ratioP2
1004;SDS011;491;53.480;10.174;2023-03-01T00:00:36;19.27;;;11.57;;
1004;SDS011;491;53.480;10.174;2023-03-01T00:03:02;24.17;;;14.20;;
1004;SDS011;491;53.480;10.174;2023-03-01T00:05:28;19.40;;;13.87;;
1004;SDS011;491;53.480;10.174;2023-03-01T00:07:54;17.90;;;13.90;;
1004;SDS011;491;53.480;10.174;2023-03-01T00:10:22;19.63;;;14.67;;
1004;SDS011;491;53.480;10.174;2023-03-01T00:12:48;18.20;;;13.63;;
1004;SDS011;491;53.480;10.174;2023-03-01T00:15:14;27.90;;;14.80;;
1004;SDS011;491;53.480;10.174;2023-03-01T00:17:40;17.47;;;12.40;;
1004;SDS011;491;53.480;10.174;2023-03-01T00:20:06;21.60;;;13.50;;
1004;SDS011;491;53.480;10.174;2023-03-01T00:22:35;26.70;;;13.80;;
1004;SDS011;491;53.480;10.174;2023-03-01T00:25:00;26.13;;;15.53;;
1004;SDS011;491;53.480;10.174;2023-03-01T00:27:26;20.60;;;13.90;;
1004;SDS011;491;53.480;10.174;2023-03-01T00:29:52;14.53;;;11.90;;
1004;SDS011;491;53.480;10.174;2023-03-01T00:32:18;19.50;;;12.67;;
1004;SDS011;491;53.480;10.174;2023-03-01T00:34:44;24.50;;;13.50;;
1004;SDS011;491;53.480;10.174;2023-03-01T00:37:18;16.43;;;10.13;;
1004;SDS011;491;53.480;10.174;2023-03-01T00:39:44;15.00;;;10.73;;
1004;SDS011;491;53.480;10.174;2023-03-01T00:42:10;19.63;;;12.80;;
1004;SDS011;491;53.480;10.174;2023-03-01T00:44:36;20.13;;;11.40;;
1004;SDS011;491;53.480;10.174;2023-03-01T00:47:02;18.33;;;11.93;;
1004;SDS011;491;53.480;10.174;2023-03-01T00:49:28;13.50;;;10.70;;
1004;SDS011;491;53.480;10.174;2023-03-01T00:51:54;16.57;;;10.60;;
1004;SDS011;491;53.480;10.174;2023-03-01T00:54:20;21.57;;;11.87;;
1004;SDS011;491;53.480;10.174;2023-03-01T00:56:46;12.50;;;9.50;;
1004;SDS011;491;53.480;10.174;2023-03-01T00:59:12;13.50;;;10.40;;
1004;SDS011;491;53.480;10.174;2023-03-01T01:01:38;16.07;;;10.60;;
1004;SDS011;491;53.480;10.174;2023-03-01T01:04:08;16.60;;;10.90;;
1004;SDS011;491;53.480;10.174;2023-03-01T01:06:38;17.60;;;10.53;;
1004;SDS011;491;53.480;10.174;2023-03-01T01:09:07;15.60;;;8.97;;
1004;SDS011;491;53.480;10.174;2023-03-01T01:11:34;15.07;;;8.90;;
1004;SDS011;491;53.480;10.174;2023-03-01T01:14:03;16.60;;;9.87;;
1004;SDS011;491;53.480;10.174;2023-03-01T01:16:29;15.10;;;9.87;;
1004;SDS011;491;53.480;10.174;2023-03-01T01:18:55;17.07;;;11.00;;
1004;SDS011;491;53.480;10.174;2023-03-01T01:21:22;15.57;;;8.57;;
1004;SDS011;491;53.480;10.174;2023-03-01T01:23:49;14.67;;;8.90;;
1004;SDS011;491;53.480;10.174;2023-03-01T01:26:19;11.50;;;9.33;;
1004;SDS011;491;53.480;10.174;2023-03-01T01:28:46;16.23;;;10.50;;
1004;SDS011;491;53.480;10.174;2023-03-01T01:31:12;15.40;;;8.53;;
1004;SDS011;491;53.480;10.174;2023-03-01T01:33:38;12.13;;;9.17;;
1004;SDS011;491;53.480;10.174;2023-03-01T01:36:05;15.83;;;9.87;;
1004;SDS011;491;53.480;10.174;2023-03-01T01:38:31;11.97;;;8.20;;
1004;SDS011;491;53.480;10.174;2023-03-01T01:40:57;12.03;;;7.20;;
1004;SDS011;491;53.480;10.174;2023-03-01T01:45:52;13.27;;;9.80;;
1004;SDS011;491;53.480;10.174;2023-03-01T01:48:21;10.37;;;5.80;;
1004;SDS011;491;53.480;10.174;2023-03-01T01:50:54;13.10;;;8.00;;
1004;SDS011;491;53.480;10.174;2023-03-01T01:53:21;8.47;;;6.77;;
1004;SDS011;491;53.480;10.174;2023-03-01T01:55:48;11.97;;;7.10;;
1004;SDS011;491;53.480;10.174;2023-03-01T01:58:19;11.57;;;8.13;;
1004;SDS011;491;53.480;10.174;2023-03-01T02:00:45;11.23;;;7.00;;
1004;SDS011;491;53.480;10.174;2023-03-01T02:03:14;12.57;;;7.87;;
1004;SDS011;491;53.480;10.174;2023-03-01T02:08:08;13.60;;;6.70;;
1004;SDS011;491;53.480;10.174;2023-03-01T02:10:36;12.07;;;6.73;;
1004;SDS011;491;53.480;10.174;2023-03-01T02:13:03;9.87;;;6.40;;
1004;SDS011;491;53.480;10.174;2023-03-01T02:15:32;13.90;;;6.97;;
1004;SDS011;491;53.480;10.174;2023-03-01T02:17:59;12.80;;;7.50;;
1004;SDS011;491;53.480;10.174;2023-03-01T02:20:40;10.63;;;7.00;;
1004;SDS011;491;53.480;10.174;2023-03-01T02:23:10;12.07;;;7.47;;
1004;SDS011;491;53.480;10.174;2023-03-01T02:30:41;8.73;;;6.33;;
1004;SDS011;491;53.480;10.174;2023-03-01T02:33:27;9.80;;;7.47;;
1004;SDS011;491;53.480;10.174;2023-03-01T02:35:57;9.07;;;7.00;;
1004;SDS011;491;53.480;10.174;2023-03-01T02:38:24;7.17;;;6.00;;
1004;SDS011;491;53.480;10.174;2023-03-01T02:40:50;14.60;;;7.47;;
1004;SDS011;491;53.480;10.174;2023-03-01T02:43:17;8.77;;;6.30;;
1004;SDS011;491;53.480;10.174;2023-03-01T02:45:48;13.43;;;6.50;;
1004;SDS011;491;53.480;10.174;2023-03-01T02:48:15;10.90;;;6.90;;
1004;SDS011;491;53.480;10.174;2023-03-01T02:50:46;12.23;;;6.83;;
1004;SDS011;491;53.480;10.174;2023-03-01T02:53:34;8.50;;;6.40;;
1004;SDS011;491;53.480;10.174;2023-03-01T02:56:01;6.30;;;4.13;;
1004;SDS011;491;53.480;10.174;2023-03-01T02:58:27;9.33;;;7.10;;
1004;SDS011;491;53.480;10.174;2023-03-01T03:00:53;15.00;;;7.80;;
1004;SDS011;491;53.480;10.174;2023-03-01T03:03:19;13.33;;;7.30;;
1004;SDS011;491;53.480;10.174;2023-03-01T03:05:46;13.60;;;7.60;;
1004;SDS011;491;53.480;10.174;2023-03-01T03:08:13;16.40;;;8.07;;
1004;SDS011;491;53.480;10.174;2023-03-01T03:10:41;16.30;;;7.97;;
1004;SDS011;491;53.480;10.174;2023-03-01T03:13:11;12.40;;;7.03;;
1004;SDS011;491;53.480;10.174;2023-03-01T03:15:37;9.77;;;6.80;;
1004;SDS011;491;53.480;10.174;2023-03-01T03:18:04;10.53;;;7.00;;
1004;SDS011;491;53.480;10.174;2023-03-01T03:20:32;8.40;;;6.00;;
1004;SDS011;491;53.480;10.174;2023-03-01T03:22:58;12.17;;;5.93;;
1004;SDS011;491;53.480;10.174;2023-03-01T03:25:24;8.30;;;6.00;;
1004;SDS011;491;53.480;10.174;2023-03-01T03:27:51;7.30;;;6.30;;
1004;SDS011;491;53.480;10.174;2023-03-01T03:30:29;8.67;;;5.27;;
1004;SDS011;491;53.480;10.174;2023-03-01T03:32:56;8.03;;;5.30;;
1004;SDS011;491;53.480;10.174;2023-03-01T03:35:29;8.60;;;6.00;;
1004;SDS011;491;53.480;10.174;2023-03-01T03:37:56;14.90;;;7.17;;
1004;SDS011;491;53.480;10.174;2023-03-01T03:42:57;10.00;;;5.33;;
1004;SDS011;491;53.480;10.174;2023-03-01T03:45:23;6.33;;;5.20;;
1004;SDS011;491;53.480;10.174;2023-03-01T03:47:49;6.80;;;5.50;;
1004;SDS011;491;53.480;10.174;2023-03-01T03:50:16;8.77;;;5.27;;
1004;SDS011;491;53.480;10.174;2023-03-01T03:52:42;9.33;;;5.20;;
1004;SDS011;491;53.480;10.174;2023-03-01T03:55:09;8.17;;;5.50;;
1004;SDS011;491;53.480;10.174;2023-03-01T03:57:36;8.67;;;5.60;;
1004;SDS011;491;53.480;10.174;2023-03-01T04:00:02;7.30;;;5.40;;
1004;SDS011;491;53.480;10.174;2023-03-01T04:02:37;8.77;;;5.57;;
1004;SDS011;491;53.480;10.174;2023-03-01T04:05:03;7.60;;;4.77;;
1004;SDS011;491;53.480;10.174;2023-03-01T04:07:29;12.20;;;6.67;;
1004;SDS011;491;53.480;10.174;2023-03-01T04:09:55;12.20;;;7.20;;
1004;SDS011;491;53.480;10.174;2023-03-01T04:12:21;9.63;;;5.27;;
1004;SDS011;491;53.480;10.174;2023-03-01T04:14:47;9.20;;;5.40;;
1004;SDS011;491;53.480;10.174;2023-03-01T04:17:19;8.50;;;5.90;;
1004;SDS011;491;53.480;10.174;2023-03-01T04:19:45;10.50;;;7.03;;
1004;SDS011;491;53.480;10.174;2023-03-01T04:22:13;8.80;;;4.83;;
1004;SDS011;491;53.480;10.174;2023-03-01T04:24:42;6.53;;;5.43;;
1004;SDS011;491;53.480;10.174;2023-03-01T04:27:08;7.33;;;4.80;;
1004;SDS011;491;53.480;10.174;2023-03-01T04:29:34;9.93;;;5.80;;
1004;SDS011;491;53.480;10.174;2023-03-01T04:32:00;8.40;;;5.87;;
1004;SDS011;491;53.480;10.174;2023-03-01T04:34:26;11.77;;;5.50;;
1004;SDS011;491;53.480;10.174;2023-03-01T04:36:52;9.03;;;6.07;;
1004;SDS011;491;53.480;10.174;2023-03-01T04:39:18;7.40;;;4.77;;
1004;SDS011;491;53.480;10.174;2023-03-01T04:41:44;6.03;;;4.87;;
1004;SDS011;491;53.480;10.174;2023-03-01T04:44:10;6.97;;;5.33;;
1004;SDS011;491;53.480;10.174;2023-03-01T04:46:36;6.10;;;5.50;;
1004;SDS011;491;53.480;10.174;2023-03-01T04:49:02;7.30;;;5.97;;
1004;SDS011;491;53.480;10.174;2023-03-01T04:51:28;9.80;;;5.30;;
1004;SDS011;491;53.480;10.174;2023-03-01T04:53:54;8.17;;;5.57;;
1004;SDS011;491;53.480;10.174;2023-03-01T04:56:20;11.97;;;6.10;;
1004;SDS011;491;53.480;10.174;2023-03-01T04:58:48;6.67;;;5.10;;
1004;SDS011;491;53.480;10.174;2023-03-01T05:01:15;7.23;;;4.67;;
1004;SDS011;491;53.480;10.174;2023-03-01T05:03:42;10.13;;;5.07;;
1004;SDS011;491;53.480;10.174;2023-03-01T05:06:08;10.37;;;5.00;;
1004;SDS011;491;53.480;10.174;2023-03-01T05:08:35;7.23;;;5.33;;
1004;SDS011;491;53.480;10.174;2023-03-01T05:11:04;7.40;;;5.70;;
1004;SDS011;491;53.480;10.174;2023-03-01T05:13:30;7.40;;;4.63;;
1004;SDS011;491;53.480;10.174;2023-03-01T05:16:00;6.60;;;4.90;;
1004;SDS011;491;53.480;10.174;2023-03-01T05:18:27;11.90;;;5.23;;
1004;SDS011;491;53.480;10.174;2023-03-01T05:20:54;8.47;;;5.07;;
1004;SDS011;491;53.480;10.174;2023-03-01T05:23:21;12.10;;;5.57;;
1004;SDS011;491;53.480;10.174;2023-03-01T05:25:47;5.57;;;4.67;;
1004;SDS011;491;53.480;10.174;2023-03-01T05:28:14;7.27;;;5.57;;
1004;SDS011;491;53.480;10.174;2023-03-01T05:30:40;7.13;;;5.70;;
1004;SDS011;491;53.480;10.174;2023-03-01T05:33:16;10.83;;;6.93;;
1004;SDS011;491;53.480;10.174;2023-03-01T05:35:42;6.20;;;4.80;;
1004;SDS011;491;53.480;10.174;2023-03-01T05:38:13;6.73;;;4.30;;
1004;SDS011;491;53.480;10.174;2023-03-01T05:40:40;7.10;;;4.93;;
1004;SDS011;491;53.480;10.174;2023-03-01T05:43:06;6.43;;;4.80;;
1004;SDS011;491;53.480;10.174;2023-03-01T05:45:32;7.40;;;5.00;;
1004;SDS011;491;53.480;10.174;2023-03-01T05:47:58;7.10;;;5.30;;
1004;SDS011;491;53.480;10.174;2023-03-01T05:50:25;5.57;;;4.87;;
1004;SDS011;491;53.480;10.174;2023-03-01T05:52:56;6.60;;;4.60;;
1004;SDS011;491;53.480;10.174;2023-03-01T05:55:22;9.80;;;6.43;;
1004;SDS011;491;53.480;10.174;2023-03-01T05:57:48;7.17;;;5.20;;
1004;SDS011;491;53.480;10.174;2023-03-01T06:00:18;9.73;;;4.93;;
1004;SDS011;491;53.480;10.174;2023-03-01T06:02:44;7.77;;;5.60;;
1004;SDS011;491;53.480;10.174;2023-03-01T06:05:11;9.43;;;5.57;;
1004;SDS011;491;53.480;10.174;2023-03-01T06:07:37;9.63;;;5.27;;
1004;SDS011;491;53.480;10.174;2023-03-01T06:10:04;7.73;;;5.37;;
1004;SDS011;491;53.480;10.174;2023-03-01T06:12:33;9.90;;;5.30;;
1004;SDS011;491;53.480;10.174;2023-03-01T06:15:02;12.03;;;5.00;;
1004;SDS011;491;53.480;10.174;2023-03-01T06:17:29;9.63;;;5.17;;
1004;SDS011;491;53.480;10.174;2023-03-01T06:19:55;9.83;;;5.67;;
1004;SDS011;491;53.480;10.174;2023-03-01T06:22:21;10.33;;;6.20;;
1004;SDS011;491;53.480;10.174;2023-03-01T06:24:47;6.77;;;4.70;;
1004;SDS011;491;53.480;10.174;2023-03-01T06:27:13;9.00;;;5.10;;
1004;SDS011;491;53.480;10.174;2023-03-01T06:29:39;8.73;;;5.80;;
1004;SDS011;491;53.480;10.174;2023-03-01T06:32:05;10.40;;;5.83;;
1004;SDS011;491;53.480;10.174;2023-03-01T06:34:32;12.73;;;5.57;;
1004;SDS011;491;53.480;10.174;2023-03-01T06:36:58;6.57;;;4.83;;
1004;SDS011;491;53.480;10.174;2023-03-01T06:39:24;9.93;;;5.37;;
1004;SDS011;491;53.480;10.174;2023-03-01T06:41:50;4.73;;;4.00;;
1004;SDS011;491;53.480;10.174;2023-03-01T06:44:16;7.40;;;4.83;;
1004;SDS011;491;53.480;10.174;2023-03-01T06:46:42;9.90;;;4.60;;
1004;SDS011;491;53.480;10.174;2023-03-01T06:49:08;6.90;;;4.50;;
1004;SDS011;491;53.480;10.174;2023-03-01T06:51:35;9.20;;;5.40;;
1004;SDS011;491;53.480;10.174;2023-03-01T06:54:01;4.50;;;3.70;;
1004;SDS011;491;53.480;10.174;2023-03-01T06:56:27;4.40;;;3.83;;
1004;SDS011;491;53.480;10.174;2023-03-01T06:58:53;10.17;;;5.70;;
1004;SDS011;491;53.480;10.174;2023-03-01T07:01:19;7.13;;;4.07;;
1004;SDS011;491;53.480;10.174;2023-03-01T07:03:45;7.30;;;4.03;;
1004;SDS011;491;53.480;10.174;2023-03-01T07:06:11;7.50;;;4.70;;
1004;SDS011;491;53.480;10.174;2023-03-01T07:08:40;6.90;;;4.27;;
1004;SDS011;491;53.480;10.174;2023-03-01T07:11:06;9.40;;;5.60;;
1004;SDS011;491;53.480;10.174;2023-03-01T07:13:33;7.97;;;4.37;;
1004;SDS011;491;53.480;10.174;2023-03-01T07:15:58;5.07;;;4.10;;
1004;SDS011;491;53.480;10.174;2023-03-01T07:18:24;8.33;;;5.27;;
1004;SDS011;491;53.480;10.174;2023-03-01T07:20:50;7.20;;;5.57;;
1004;SDS011;491;53.480;10.174;2023-03-01T07:23:16;9.63;;;6.17;;
1004;SDS011;491;53.480;10.174;2023-03-01T07:25:42;8.97;;;5.70;;
1004;SDS011;491;53.480;10.174;2023-03-01T07:28:08;9.10;;;5.73;;
1004;SDS011;491;53.480;10.174;2023-03-01T07:30:34;15.70;;;7.97;;
1004;SDS011;491;53.480;10.174;2023-03-01T07:33:00;14.83;;;6.63;;
1004;SDS011;491;53.480;10.174;2023-03-01T07:35:26;7.67;;;6.07;;
1004;SDS011;491;53.480;10.174;2023-03-01T07:37:52;8.73;;;5.33;;
1004;SDS011;491;53.480;10.174;2023-03-01T07:40:18;13.70;;;6.77;;
1004;SDS011;491;53.480;10.174;2023-03-01T07:42:44;7.00;;;5.27;;
1004;SDS011;491;53.480;10.174;2023-03-01T07:45:11;7.60;;;4.87;;
1004;SDS011;491;53.480;10.174;2023-03-01T07:47:39;6.67;;;5.57;;
1004;SDS011;491;53.480;10.174;2023-03-01T07:50:05;6.97;;;4.40;;
1004;SDS011;491;53.480;10.174;2023-03-01T07:52:31;8.03;;;4.00;;
1004;SDS011;491;53.480;10.174;2023-03-01T07:54:57;5.77;;;4.20;;
1004;SDS011;491;53.480;10.174;2023-03-01T07:57:23;5.70;;;4.47;;
1004;SDS011;491;53.480;10.174;2023-03-01T07:59:49;10.47;;;6.83;;
1004;SDS011;491;53.480;10.174;2023-03-01T08:02:15;7.63;;;5.83;;
1004;SDS011;491;53.480;10.174;2023-03-01T08:04:41;7.63;;;4.23;;
1004;SDS011;491;53.480;10.174;2023-03-01T08:07:07;5.47;;;3.60;;
1004;SDS011;491;53.480;10.174;2023-03-01T08:09:36;6.80;;;4.40;;
1004;SDS011;491;53.480;10.174;2023-03-01T08:12:02;6.33;;;3.77;;
1004;SDS011;491;53.480;10.174;2023-03-01T08:14:29;7.23;;;5.13;;
1004;SDS011;491;53.480;10.174;2023-03-01T08:16:55;6.70;;;3.90;;
1004;SDS011;491;53.480;10.174;2023-03-01T08:19:21;4.00;;;3.53;;
1004;SDS011;491;53.480;10.174;2023-03-01T08:21:47;7.27;;;3.97;;
1004;SDS011;491;53.480;10.174;2023-03-01T08:24:13;4.30;;;3.00;;
1004;SDS011;491;53.480;10.174;2023-03-01T08:26:39;7.30;;;4.33;;
1004;SDS011;491;53.480;10.174;2023-03-01T08:29:05;6.43;;;3.50;;
1004;SDS011;491;53.480;10.174;2023-03-01T08:31:35;6.57;;;4.10;;
1004;SDS011;491;53.480;10.174;2023-03-01T08:34:03;5.67;;;4.50;;
1004;SDS011;491;53.480;10.174;2023-03-01T08:36:30;9.10;;;4.10;;
1004;SDS011;491;53.480;10.174;2023-03-01T08:38:56;7.33;;;4.60;;
1004;SDS011;491;53.480;10.174;2023-03-01T08:41:22;5.73;;;3.40;;
1004;SDS011;491;53.480;10.174;2023-03-01T08:43:57;6.40;;;3.00;;
1004;SDS011;491;53.480;10.174;2023-03-01T08:46:30;5.17;;;3.33;;
1004;SDS011;491;53.480;10.174;2023-03-01T08:48:56;4.53;;;4.00;;
1004;SDS011;491;53.480;10.174;2023-03-01T08:51:22;9.20;;;4.53;;
1004;SDS011;491;53.480;10.174;2023-03-01T08:53:48;13.10;;;4.57;;
1004;SDS011;491;53.480;10.174;2023-03-01T08:56:14;7.67;;;4.20;;
1004;SDS011;491;53.480;10.174;2023-03-01T08:58:43;8.20;;;5.00;;
1004;SDS011;491;53.480;10.174;2023-03-01T09:01:10;6.03;;;3.87;;
1004;SDS011;491;53.480;10.174;2023-03-01T09:03:36;8.37;;;4.30;;
1004;SDS011;491;53.480;10.174;2023-03-01T09:06:03;8.00;;;5.10;;
1004;SDS011;491;53.480;10.174;2023-03-01T09:08:29;7.53;;;3.40;;
1004;SDS011;491;53.480;10.174;2023-03-01T09:10:55;11.83;;;4.40;;
1004;SDS011;491;53.480;10.174;2023-03-01T09:13:21;8.60;;;4.40;;
1004;SDS011;491;53.480;10.174;2023-03-01T09:15:49;9.13;;;4.23;;
1004;SDS011;491;53.480;10.174;2023-03-01T09:18:15;9.20;;;3.83;;
1004;SDS011;491;53.480;10.174;2023-03-01T09:20:40;4.43;;;4.00;;
1004;SDS011;491;53.480;10.174;2023-03-01T09:23:06;6.47;;;2.90;;
1004;SDS011;491;53.480;10.174;2023-03-01T09:25:33;7.33;;;4.23;;
1004;SDS011;491;53.480;10.174;2023-03-01T09:27:59;7.87;;;4.73;;
1004;SDS011;491;53.480;10.174;2023-03-01T09:30:24;8.20;;;4.50;;
1004;SDS011;491;53.480;10.174;2023-03-01T09:32:50;8.77;;;4.80;;
1004;SDS011;491;53.480;10.174;2023-03-01T09:35:16;13.43;;;5.60;;
1004;SDS011;491;53.480;10.174;2023-03-01T09:37:41;6.43;;;4.77;;
1004;SDS011;491;53.480;10.174;2023-03-01T09:40:12;9.03;;;5.47;;
1004;SDS011;491;53.480;10.174;2023-03-01T09:42:45;6.33;;;3.93;;
1004;SDS011;491;53.480;10.174;2023-03-01T09:45:27;12.03;;;5.27;;
1004;SDS011;491;53.480;10.174;2023-03-01T09:47:58;8.10;;;5.27;;
1004;SDS011;491;53.480;10.174;2023-03-01T09:50:24;6.17;;;4.43;;
1004;SDS011;491;53.480;10.174;2023-03-01T09:53:01;9.30;;;5.17;;
1004;SDS011;491;53.480;10.174;2023-03-01T09:55:33;12.07;;;6.23;;
1004;SDS011;491;53.480;10.174;2023-03-01T09:58:20;10.23;;;5.33;;
1004;SDS011;491;53.480;10.174;2023-03-01T10:00:50;6.40;;;5.33;;
1004;SDS011;491;53.480;10.174;2023-03-01T10:03:16;9.70;;;6.90;;
1004;SDS011;491;53.480;10.174;2023-03-01T10:08:28;8.30;;;5.77;;
1004;SDS011;491;53.480;10.174;2023-03-01T10:11:22;7.50;;;5.97;;
1004;SDS011;491;53.480;10.174;2023-03-01T10:14:03;11.17;;;6.47;;
1004;SDS011;491;53.480;10.174;2023-03-01T10:16:55;8.03;;;6.93;;
1004;SDS011;491;53.480;10.174;2023-03-01T10:19:31;9.43;;;6.87;;
1004;SDS011;491;53.480;10.174;2023-03-01T10:22:20;11.60;;;6.77;;
1004;SDS011;491;53.480;10.174;2023-03-01T10:24:53;11.60;;;6.20;;
1004;SDS011;491;53.480;10.174;2023-03-01T10:27:24;13.10;;;6.20;;
1004;SDS011;491;53.480;10.174;2023-03-01T10:29:55;11.53;;;6.47;;
1004;SDS011;491;53.480;10.174;2023-03-01T10:32:35;7.77;;;6.07;;
1004;SDS011;491;53.480;10.174;2023-03-01T10:35:15;8.60;;;6.00;;
1004;SDS011;491;53.480;10.174;2023-03-01T10:37:46;9.30;;;6.00;;
1004;SDS011;491;53.480;10.174;2023-03-01T10:40:52;9.30;;;5.97;;
1004;SDS011;491;53.480;10.174;2023-03-01T10:43:32;9.10;;;6.30;;
1004;SDS011;491;53.480;10.174;2023-03-01T10:46:24;9.20;;;6.97;;
1004;SDS011;491;53.480;10.174;2023-03-01T10:51:42;8.50;;;6.20;;
1004;SDS011;491;53.480;10.174;2023-03-01T10:57:10;8.70;;;7.20;;
1004;SDS011;491;53.480;10.174;2023-03-01T11:00:02;7.40;;;5.63;;
1004;SDS011;491;53.480;10.174;2023-03-01T11:03:01;6.77;;;6.13;;
1004;SDS011;491;53.480;10.174;2023-03-01T11:05:34;8.00;;;5.90;;
1004;SDS011;491;53.480;10.174;2023-03-01T11:08:01;7.30;;;5.73;;
1004;SDS011;491;53.480;10.174;2023-03-01T11:10:30;7.07;;;5.60;;
1004;SDS011;491;53.480;10.174;2023-03-01T11:13:07;6.47;;;5.00;;
1004;SDS011;491;53.480;10.174;2023-03-01T11:15:58;6.57;;;4.50;;
1004;SDS011;491;53.480;10.174;2023-03-01T11:18:29;8.40;;;5.90;;
1004;SDS011;491;53.480;10.174;2023-03-01T11:20:55;8.47;;;5.10;;
1004;SDS011;491;53.480;10.174;2023-03-01T11:23:23;7.20;;;5.70;;
1004;SDS011;491;53.480;10.174;2023-03-01T11:26:00;6.17;;;5.17;;
1004;SDS011;491;53.480;10.174;2023-03-01T11:28:29;7.07;;;5.20;;
1004;SDS011;491;53.480;10.174;2023-03-01T11:31:00;7.50;;;5.90;;
1004;SDS011;491;53.480;10.174;2023-03-01T11:36:52;8.17;;;6.90;;
1004;SDS011;491;53.480;10.174;2023-03-01T11:41:53;6.80;;;4.53;;
1004;SDS011;491;53.480;10.174;2023-03-01T11:44:29;6.27;;;4.93;;
1004;SDS011;491;53.480;10.174;2023-03-01T11:47:21;6.73;;;4.93;;
1004;SDS011;491;53.480;10.174;2023-03-01T11:50:16;7.70;;;4.87;;
1004;SDS011;491;53.480;10.174;2023-03-01T11:53:23;5.33;;;4.33;;
1004;SDS011;491;53.480;10.174;2023-03-01T11:55:57;7.50;;;6.30;;
1004;SDS011;491;53.480;10.174;2023-03-01T12:01:18;5.50;;;4.60;;
1004;SDS011;491;53.480;10.174;2023-03-01T12:04:31;6.60;;;5.87;;
1004;SDS011;491;53.480;10.174;2023-03-01T12:07:30;6.33;;;4.97;;
1004;SDS011;491;53.480;10.174;2023-03-01T12:18:30;6.40;;;5.00;;
1004;SDS011;491;53.480;10.174;2023-03-01T12:23:52;5.40;;;4.23;;
1004;SDS011;491;53.480;10.174;2023-03-01T12:26:31;6.17;;;5.10;;
1004;SDS011;491;53.480;10.174;2023-03-01T12:31:54;7.00;;;5.43;;
1004;SDS011;491;53.480;10.174;2023-03-01T12:34:33;5.30;;;4.80;;
1004;SDS011;491;53.480;10.174;2023-03-01T12:43:23;7.13;;;5.77;;
1004;SDS011;491;53.480;10.174;2023-03-01T12:46:02;6.37;;;5.20;;
1004;SDS011;491;53.480;10.174;2023-03-01T12:51:42;6.20;;;5.43;;
1004;SDS011;491;53.480;10.174;2023-03-01T12:54:15;7.30;;;4.97;;
1004;SDS011;491;53.480;10.174;2023-03-01T12:56:43;5.23;;;4.50;;
1004;SDS011;491;53.480;10.174;2023-03-01T13:07:51;7.37;;;5.30;;
1004;SDS011;491;53.480;10.174;2023-03-01T13:10:38;7.70;;;5.00;;
1004;SDS011;491;53.480;10.174;2023-03-01T13:15:38;6.53;;;5.90;;
1004;SDS011;491;53.480;10.174;2023-03-01T13:20:46;7.93;;;5.10;;
1004;SDS011;491;53.480;10.174;2023-03-01T13:30:56;6.00;;;3.90;;
1004;SDS011;491;53.480;10.174;2023-03-01T13:35:48;5.87;;;4.50;;
1004;SDS011;491;53.480;10.174;2023-03-01T13:44:22;7.40;;;4.77;;
1004;SDS011;491;53.480;10.174;2023-03-01T13:49:53;4.50;;;2.73;;
1004;SDS011;491;53.480;10.174;2023-03-01T13:52:36;3.43;;;2.13;;
1004;SDS011;491;53.480;10.174;2023-03-01T13:57:38;6.73;;;2.57;;
1004;SDS011;491;53.480;10.174;2023-03-01T14:00:24;6.60;;;2.70;;
1004;SDS011;491;53.480;10.174;2023-03-01T14:02:59;4.73;;;2.70;;
1004;SDS011;491;53.480;10.174;2023-03-01T14:05:29;5.07;;;1.77;;
1004;SDS011;491;53.480;10.174;2023-03-01T14:07:55;3.20;;;1.80;;
1004;SDS011;491;53.480;10.174;2023-03-01T14:10:21;4.10;;;2.70;;
1004;SDS011;491;53.480;10.174;2023-03-01T14:13:02;3.60;;;1.60;;
1004;SDS011;491;53.480;10.174;2023-03-01T14:15:42;3.30;;;1.90;;
1004;SDS011;491;53.480;10.174;2023-03-01T14:18:19;4.20;;;2.00;;
1004;SDS011;491;53.480;10.174;2023-03-01T14:20:47;4.50;;;2.67;;
1004;SDS011;491;53.480;10.174;2023-03-01T14:23:19;5.47;;;1.80;;
1004;SDS011;491;53.480;10.174;2023-03-01T14:25:47;3.90;;;1.70;;
1004;SDS011;491;53.480;10.174;2023-03-01T14:30:52;4.93;;;2.73;;
1004;SDS011;491;53.480;10.174;2023-03-01T14:36:12;3.20;;;2.20;;
1004;SDS011;491;53.480;10.174;2023-03-01T14:38:39;6.17;;;3.30;;
1004;SDS011;491;53.480;10.174;2023-03-01T14:41:11;3.33;;;2.03;;
1004;SDS011;491;53.480;10.174;2023-03-01T14:43:44;5.23;;;2.30;;
1004;SDS011;491;53.480;10.174;2023-03-01T14:46:26;6.60;;;2.57;;
1004;SDS011;491;53.480;10.174;2023-03-01T14:49:13;4.30;;;2.10;;
1004;SDS011;491;53.480;10.174;2023-03-01T14:51:42;4.33;;;2.10;;
1004;SDS011;491;53.480;10.174;2023-03-01T14:54:23;5.30;;;1.73;;
1004;SDS011;491;53.480;10.174;2023-03-01T14:56:58;3.93;;;2.60;;
1004;SDS011;491;53.480;10.174;2023-03-01T14:59:25;5.00;;;4.20;;
1004;SDS011;491;53.480;10.174;2023-03-01T15:01:51;2.43;;;1.27;;
1004;SDS011;491;53.480;10.174;2023-03-01T15:04:20;3.13;;;1.53;;
1004;SDS011;491;53.480;10.174;2023-03-01T15:06:49;4.07;;;2.13;;
1004;SDS011;491;53.480;10.174;2023-03-01T15:09:16;3.70;;;1.80;;
1004;SDS011;491;53.480;10.174;2023-03-01T15:11:42;3.50;;;2.37;;
1004;SDS011;491;53.480;10.174;2023-03-01T15:14:27;5.90;;;1.63;;
1004;SDS011;491;53.480;10.174;2023-03-01T15:19:58;3.73;;;2.80;;
1004;SDS011;491;53.480;10.174;2023-03-01T15:22:25;4.73;;;3.00;;
1004;SDS011;491;53.480;10.174;2023-03-01T15:24:54;5.30;;;2.83;;
1004;SDS011;491;53.480;10.174;2023-03-01T15:27:20;6.23;;;2.73;;
1004;SDS011;491;53.480;10.174;2023-03-01T15:29:49;4.83;;;2.90;;
1004;SDS011;491;53.480;10.174;2023-03-01T15:32:30;4.63;;;3.50;;
1004;SDS011;491;53.480;10.174;2023-03-01T15:34:58;9.73;;;3.47;;
1004;SDS011;491;53.480;10.174;2023-03-01T15:37:39;4.80;;;2.53;;
1004;SDS011;491;53.480;10.174;2023-03-01T15:40:26;4.50;;;2.87;;
1004;SDS011;491;53.480;10.174;2023-03-01T15:43:06;4.37;;;2.43;;
1004;SDS011;491;53.480;10.174;2023-03-01T15:46:05;6.53;;;3.40;;
1004;SDS011;491;53.480;10.174;2023-03-01T15:48:43;5.00;;;2.53;;
1004;SDS011;491;53.480;10.174;2023-03-01T15:51:11;3.43;;;2.40;;
1004;SDS011;491;53.480;10.174;2023-03-01T15:53:39;4.70;;;2.33;;
1004;SDS011;491;53.480;10.174;2023-03-01T15:56:05;5.40;;;2.37;;
1004;SDS011;491;53.480;10.174;2023-03-01T15:58:32;5.03;;;2.20;;
1004;SDS011;491;53.480;10.174;2023-03-01T16:00:58;4.50;;;2.50;;
1004;SDS011;491;53.480;10.174;2023-03-01T16:03:24;5.93;;;1.87;;
1004;SDS011;491;53.480;10.174;2023-03-01T16:05:50;3.13;;;1.93;;
1004;SDS011;491;53.480;10.174;2023-03-01T16:08:17;3.80;;;2.10;;
1004;SDS011;491;53.480;10.174;2023-03-01T16:10:43;3.90;;;1.83;;
1004;SDS011;491;53.480;10.174;2023-03-01T16:13:11;3.63;;;2.07;;
1004;SDS011;491;53.480;10.174;2023-03-01T16:15:37;3.93;;;2.13;;
1004;SDS011;491;53.480;10.174;2023-03-01T16:18:04;3.20;;;1.40;;
1004;SDS011;491;53.480;10.174;2023-03-01T16:20:35;2.77;;;1.43;;
1004;SDS011;491;53.480;10.174;2023-03-01T16:23:01;4.03;;;1.97;;
1004;SDS011;491;53.480;10.174;2023-03-01T16:25:28;4.07;;;2.40;;
1004;SDS011;491;53.480;10.174;2023-03-01T16:27:55;5.10;;;2.63;;
1004;SDS011;491;53.480;10.174;2023-03-01T16:30:21;4.60;;;1.97;;
1004;SDS011;491;53.480;10.174;2023-03-01T16:32:48;4.03;;;2.30;;
1004;SDS011;491;53.480;10.174;2023-03-01T16:35:15;4.70;;;2.63;;
1004;SDS011;491;53.480;10.174;2023-03-01T16:37:45;6.03;;;2.63;;
1004;SDS011;491;53.480;10.174;2023-03-01T16:42:48;4.77;;;2.73;;
1004;SDS011;491;53.480;10.174;2023-03-01T16:45:15;5.07;;;2.80;;
1004;SDS011;491;53.480;10.174;2023-03-01T16:47:41;8.37;;;3.93;;
1004;SDS011;491;53.480;10.174;2023-03-01T16:50:07;6.23;;;2.70;;
1004;SDS011;491;53.480;10.174;2023-03-01T16:52:33;5.28;;;3.20;;
1004;SDS011;491;53.480;10.174;2023-03-01T16:54:59;4.10;;;1.57;;
1004;SDS011;491;53.480;10.174;2023-03-01T16:57:24;3.13;;;2.13;;
1004;SDS011;491;53.480;10.174;2023-03-01T16:59:53;2.80;;;1.43;;
1004;SDS011;491;53.480;10.174;2023-03-01T17:02:19;5.37;;;2.27;;
1004;SDS011;491;53.480;10.174;2023-03-01T17:04:44;7.50;;;2.97;;